createdAt,value
2018-12-26T00:01:52.998Z,99.90
2018-12-26T00:06:38.780Z,99.90
2018-12-26T00:11:24.689Z,99.90
2018-12-26T00:16:10.504Z,99.90
2018-12-26T00:20:56.266Z,99.90
2018-12-26T00:25:41.995Z,99.90
2018-12-26T00:30:28.272Z,99.90
2018-12-26T00:35:14.185Z,99.90
2018-12-26T00:39:59.953Z,99.90
2018-12-26T00:44:45.715Z,99.90
2018-12-26T00:49:31.491Z,99.90
2018-12-26T00:54:17.237Z,99.90
2018-12-26T00:59:02.921Z,99.90
2018-12-26T01:03:48.767Z,99.90
2018-12-26T01:08:34.514Z,99.90
2018-12-26T01:13:20.273Z,99.90
2018-12-26T01:18:05.965Z,99.90
2018-12-26T01:22:51.638Z,99.90
2018-12-26T01:27:37.619Z,99.90
2018-12-26T01:32:23.403Z,99.90
2018-12-26T01:37:09.203Z,99.90
2018-12-26T01:41:54.949Z,99.90
2018-12-26T01:46:40.698Z,99.90
2018-12-26T01:51:26.392Z,99.90
2018-12-26T01:56:12.138Z,99.90
2018-12-26T02:00:57.749Z,99.90
2018-12-26T02:05:43.468Z,99.90
2018-12-26T02:10:29.178Z,99.90
2018-12-26T02:15:14.938Z,99.90
2018-12-26T02:20:00.662Z,99.90
2018-12-26T02:24:46.415Z,99.90
2018-12-26T02:29:32.257Z,99.90
2018-12-26T02:34:17.896Z,99.90
2018-12-26T02:39:03.957Z,99.90
2018-12-26T02:43:49.716Z,99.90
2018-12-26T02:48:35.436Z,99.90
2018-12-26T02:53:21.101Z,99.90
2018-12-26T02:58:06.829Z,99.90
2018-12-26T03:02:52.603Z,99.90
2018-12-26T03:07:38.385Z,99.90
2018-12-26T03:12:24.201Z,99.90
2018-12-26T03:17:10.048Z,99.90
2018-12-26T03:21:55.837Z,99.90
2018-12-26T03:26:41.626Z,99.90
2018-12-26T03:31:27.449Z,99.90
2018-12-26T03:36:13.289Z,99.90
2018-12-26T03:40:59.105Z,99.90
2018-12-26T03:45:44.946Z,99.90
2018-12-26T03:50:30.635Z,99.90
2018-12-26T03:55:16.492Z,99.90
2018-12-26T04:00:02.259Z,99.90
2018-12-26T04:04:48.039Z,99.90
2018-12-26T04:09:33.699Z,99.90
2018-12-26T04:14:19.467Z,99.90
2018-12-26T04:19:05.261Z,99.90
2018-12-26T04:23:51.077Z,99.90
2018-12-26T04:28:36.795Z,99.90
2018-12-26T04:33:22.460Z,99.90
2018-12-26T04:38:08.715Z,99.90
2018-12-26T04:42:54.439Z,99.90
2018-12-26T04:47:40.129Z,99.90
2018-12-26T04:52:25.883Z,99.90
2018-12-26T04:57:11.566Z,99.90
2018-12-26T05:01:57.323Z,99.90
2018-12-26T05:06:43.055Z,99.90
2018-12-26T05:11:28.977Z,99.90
2018-12-26T05:16:15.120Z,99.90
2018-12-26T05:21:00.877Z,99.90
2018-12-26T05:25:46.553Z,99.90
2018-12-26T05:30:32.360Z,99.90
2018-12-26T05:35:18.105Z,99.90
2018-12-26T05:40:03.915Z,99.90
2018-12-26T05:44:49.610Z,99.90
2018-12-26T05:49:35.582Z,99.90
2018-12-26T05:54:21.303Z,99.90
2018-12-26T05:59:07.191Z,99.90
2018-12-26T06:03:53.083Z,99.90
2018-12-26T06:08:38.782Z,99.90
2018-12-26T06:13:24.491Z,99.90
2018-12-26T06:18:10.301Z,99.90
2018-12-26T06:22:56.042Z,99.90
2018-12-26T06:27:41.725Z,99.90
2018-12-26T06:32:27.512Z,99.90
2018-12-26T06:37:13.284Z,99.90
2018-12-26T06:41:58.981Z,99.90
2018-12-26T06:46:44.790Z,99.90
2018-12-26T06:51:33.165Z,99.90
2018-12-26T06:56:18.888Z,99.90
2018-12-26T07:01:04.615Z,99.90
2018-12-26T07:05:50.315Z,99.90
2018-12-26T07:10:36.104Z,99.90
2018-12-26T07:15:21.901Z,99.90
2018-12-26T07:20:07.826Z,99.90
2018-12-26T07:24:53.566Z,99.90
2018-12-26T07:29:39.205Z,99.90
2018-12-26T07:34:24.971Z,99.90
2018-12-26T07:39:10.713Z,99.90
2018-12-26T07:43:56.503Z,99.90
2018-12-26T07:48:42.273Z,99.90
2018-12-26T07:53:28.232Z,99.90
2018-12-26T07:58:17.759Z,99.90
2018-12-26T08:03:01.297Z,99.90
2018-12-26T08:07:47.104Z,99.90
2018-12-26T08:12:32.947Z,99.90
2018-12-26T08:17:37.620Z,99.90
2018-12-26T08:22:23.378Z,99.90
2018-12-26T08:27:09.189Z,99.90
2018-12-26T08:31:54.947Z,99.90
2018-12-26T08:36:40.903Z,99.90
2018-12-26T08:41:26.667Z,99.90
2018-12-26T08:46:12.419Z,99.90
2018-12-26T08:50:58.147Z,99.90
2018-12-26T08:55:43.908Z,99.90
2018-12-26T09:00:29.648Z,99.90
2018-12-26T09:05:15.519Z,99.90
2018-12-26T09:10:01.363Z,99.90
2018-12-26T09:14:47.036Z,99.90
2018-12-26T09:19:32.851Z,92.20
2018-12-26T09:24:18.602Z,91.20
2018-12-26T09:29:04.523Z,91.00
2018-12-26T09:33:50.250Z,87.60
2018-12-26T09:38:36.003Z,78.90
2018-12-26T09:43:21.860Z,77.80
2018-12-26T09:48:07.752Z,75.90
2018-12-26T09:52:53.494Z,72.70
2018-12-26T09:57:39.324Z,76.30
2018-12-26T10:02:25.223Z,66.90
2018-12-26T10:07:11.022Z,62.80
2018-12-26T10:11:56.796Z,62.60
2018-12-26T10:16:42.650Z,63.20
2018-12-26T10:21:28.480Z,65.30
2018-12-26T10:26:14.331Z,72.50
2018-12-26T10:31:00.158Z,78.30
2018-12-26T10:35:45.948Z,85.70
2018-12-26T10:40:31.724Z,87.90
2018-12-26T10:45:17.802Z,92.20
2018-12-26T10:50:03.784Z,92.20
2018-12-26T10:54:52.480Z,88.60
2018-12-26T10:59:38.361Z,84.80
2018-12-26T11:04:24.155Z,78.80
2018-12-26T11:09:09.988Z,73.60
2018-12-26T11:13:55.692Z,69.20
2018-12-26T11:18:41.443Z,62.70
2018-12-26T11:23:27.116Z,58.60
2018-12-26T11:28:12.914Z,55.80
2018-12-26T11:33:01.285Z,53.10
2018-12-26T11:37:46.723Z,52.10
2018-12-26T11:42:32.604Z,50.30
2018-12-26T11:47:18.421Z,49.50
2018-12-26T11:52:04.331Z,50.50
2018-12-26T11:56:50.138Z,54.50
2018-12-26T12:01:36.045Z,57.20
2018-12-26T12:06:21.964Z,61.40
2018-12-26T12:11:07.867Z,65.70
2018-12-26T12:15:53.796Z,66.40
2018-12-26T12:20:39.786Z,67.10
2018-12-26T12:25:25.554Z,67.00
2018-12-26T12:30:11.322Z,63.60
2018-12-26T12:34:57.211Z,58.50
2018-12-26T12:39:43.209Z,51.40
2018-12-26T12:44:29.083Z,50.00
2018-12-26T12:49:14.868Z,46.90
2018-12-26T12:54:00.738Z,44.70
2018-12-26T12:58:46.626Z,44.90
2018-12-26T13:03:32.503Z,46.10
2018-12-26T13:08:18.281Z,44.40
2018-12-26T13:13:04.172Z,45.00
2018-12-26T13:17:49.988Z,42.20
2018-12-26T13:22:35.731Z,45.80
2018-12-26T13:27:24.521Z,45.00
2018-12-26T13:32:10.468Z,45.50
2018-12-26T13:36:56.330Z,45.10
2018-12-26T13:41:42.149Z,42.30
2018-12-26T13:46:33.788Z,44.50
2018-12-26T13:51:15.917Z,43.90
2018-12-26T13:56:03.727Z,43.70
2018-12-26T14:00:49.549Z,43.00
2018-12-26T14:05:35.309Z,45.30
2018-12-26T14:10:21.091Z,46.80
2018-12-26T14:15:08.045Z,49.30
2018-12-26T14:19:53.798Z,55.30
2018-12-26T14:24:39.716Z,65.40
2018-12-26T14:29:25.474Z,75.90
2018-12-26T14:34:11.326Z,89.00
2018-12-26T14:38:57.116Z,93.30
2018-12-26T14:43:43.175Z,95.20
2018-12-26T14:48:28.901Z,99.50
2018-12-26T14:53:14.657Z,99.90
2018-12-26T14:58:00.486Z,99.90
2018-12-26T15:02:46.343Z,99.90
2018-12-26T15:07:32.081Z,99.90
2018-12-26T15:12:18.109Z,99.90
2018-12-26T15:17:04.065Z,99.90
2018-12-26T15:21:50.002Z,99.90
2018-12-26T15:26:35.750Z,99.90
2018-12-26T15:31:21.503Z,99.90
2018-12-26T15:36:07.268Z,99.90
2018-12-26T15:40:53.080Z,99.90
2018-12-26T15:45:38.971Z,99.90
2018-12-26T15:50:24.750Z,99.90
2018-12-26T15:55:10.600Z,99.90
2018-12-26T15:59:56.408Z,99.90
2018-12-26T16:04:42.162Z,99.90
2018-12-26T16:09:27.973Z,99.90
2018-12-26T16:14:13.645Z,99.90
2018-12-26T16:18:59.435Z,99.90
2018-12-26T16:23:45.180Z,99.90
2018-12-26T16:28:30.899Z,99.90
2018-12-26T16:33:16.645Z,99.90
2018-12-26T16:38:02.402Z,99.90
2018-12-26T16:42:48.160Z,99.90
2018-12-26T16:47:33.981Z,99.90
2018-12-26T16:52:19.747Z,99.90
2018-12-26T16:57:05.542Z,99.90
2018-12-26T17:01:51.279Z,99.90
2018-12-26T17:06:36.990Z,99.90
2018-12-26T17:11:22.775Z,99.90
2018-12-26T17:16:08.702Z,99.90
2018-12-26T17:20:54.481Z,99.90
2018-12-26T17:25:40.223Z,99.90
2018-12-26T17:30:26.005Z,99.90
2018-12-26T17:35:11.875Z,99.90
2018-12-26T17:39:57.886Z,99.90
2018-12-26T17:44:43.681Z,99.90
2018-12-26T17:49:29.418Z,99.90
2018-12-26T17:54:44.778Z,99.90
2018-12-26T17:59:40.824Z,99.90
2018-12-26T18:04:26.685Z,99.90
2018-12-26T18:09:12.443Z,99.90
2018-12-26T18:13:58.377Z,99.90
2018-12-26T18:18:44.187Z,99.90
2018-12-26T18:23:30.167Z,99.90
2018-12-26T18:28:16.183Z,99.90
2018-12-26T18:33:02.174Z,99.90
2018-12-26T18:37:48.260Z,99.90
2018-12-26T18:42:34.159Z,99.90
2018-12-26T18:47:20.012Z,99.90
2018-12-26T18:52:06.109Z,99.90
2018-12-26T18:56:52.322Z,99.90
2018-12-26T19:01:38.283Z,99.90
2018-12-26T19:06:24.270Z,99.90
2018-12-26T19:11:10.015Z,99.90
2018-12-26T19:15:55.987Z,99.90
2018-12-26T19:20:41.845Z,99.90
2018-12-26T19:25:27.967Z,99.90
2018-12-26T19:30:14.371Z,99.90
2018-12-26T19:35:00.249Z,99.90
2018-12-26T19:39:47.095Z,99.90
2018-12-26T19:44:33.487Z,99.90
2018-12-26T19:49:19.454Z,99.90
2018-12-26T19:54:05.220Z,99.90
2018-12-26T19:58:51.230Z,99.90
2018-12-26T20:03:37.178Z,99.90
2018-12-26T20:08:23.189Z,99.90
2018-12-26T20:13:09.547Z,99.90
2018-12-26T20:17:58.528Z,99.90
2018-12-26T20:22:44.476Z,99.90
2018-12-26T20:27:30.958Z,99.90
2018-12-26T20:32:16.806Z,99.90
2018-12-26T20:37:02.813Z,99.90
2018-12-26T20:41:49.310Z,99.90
2018-12-26T20:46:35.479Z,99.90
2018-12-26T20:51:22.151Z,99.90
2018-12-26T20:56:08.524Z,99.90
2018-12-26T21:00:54.858Z,99.90
2018-12-26T21:05:41.115Z,99.90
2018-12-26T21:10:27.455Z,99.90
2018-12-26T21:15:13.721Z,99.90
2018-12-26T21:19:59.997Z,99.90
2018-12-26T21:24:46.325Z,99.90
2018-12-26T21:29:32.662Z,99.90
2018-12-26T21:34:37.455Z,99.90
2018-12-26T21:39:23.335Z,99.90
2018-12-26T21:44:09.632Z,99.90
2018-12-26T21:48:55.630Z,99.90
2018-12-26T21:53:42.798Z,99.90
2018-12-26T21:58:28.918Z,99.90
2018-12-26T22:03:15.246Z,99.90
2018-12-26T22:08:01.357Z,99.90
2018-12-26T22:12:47.356Z,99.90
2018-12-26T22:17:33.166Z,99.90
2018-12-26T22:22:19.157Z,99.90
2018-12-26T22:27:05.002Z,99.90
2018-12-26T22:31:50.948Z,99.90
2018-12-26T22:36:36.837Z,99.90
2018-12-26T22:41:22.699Z,99.90
2018-12-26T22:46:08.472Z,99.90
2018-12-26T22:50:54.817Z,99.90
2018-12-26T22:55:40.605Z,99.90
2018-12-26T23:00:41.356Z,99.90
2018-12-26T23:05:27.157Z,99.90
2018-12-26T23:10:12.993Z,99.90
2018-12-26T23:14:58.786Z,99.90
2018-12-26T23:19:44.619Z,99.90
2018-12-26T23:24:30.513Z,99.90
2018-12-26T23:29:16.481Z,99.90
2018-12-26T23:34:02.381Z,99.90
2018-12-26T23:38:48.268Z,99.90
2018-12-26T23:43:34.036Z,99.90
2018-12-26T23:48:20.346Z,99.90
2018-12-26T23:53:06.249Z,99.90
2018-12-26T23:57:52.065Z,99.90
